Terminal Aerodrome Forecast
Issued by NWS St Louis, MO

Home | Current Version | Previous Version | Text Only | Print | Product List | Glossary On
Versions: 1 2 3 4 5 6 7 8 9 10 11 12 13 14 15 16
000
FTUS43 KLSX 211133
TAFCOU
TAF
KCOU 211133Z 2112/2212 18005KT P6SM BKN250
     FM211600 23009KT P6SM SCT050 BKN250
     FM220600 21008KT P6SM BKN100
     FM220800 25007KT P6SM OVC070
     FM220900 26008KT 4SM SHRA VCTS OVC035CB=

USA.gov is the U.S. government's official web portal to all federal, state and local government web resources and services.